Wataga, Illinois
Current Conditions -  °F | °C
As of 10:15 AM on Sunday 25 Jan 2015 (Local Time) from KGBG Reporting Station
Light Snow Light Snow  
Wind Chill: 21°   Ceiling: 700
Heat Index: 32°   Visibility: 1.2mi
Dew Point: 32°   Wind: 18mph
Humidity: 99%   Direction: 40°NE
Pressure: 29.7"   Gusts: 26mph
Location:  41.03°N, 90.28°W
Report Text: KGBG 251615Z AUTO 04016G23KT 1 1/4SM -SN OVC007 00/00 A2970 RMK AO2 T00010000
Loading
Personal Weather Stations






























Interactive Weather Map New forecast layout! Learn more

10-Day Weather Forecast

Advertisements
Track Severe Weather on mobile